Toledo, OH (43601)

11:40 PM EST on February 21, 2017 (GMT -0500)
643 white st(BERMUDEZ YD) | | Change Station

Elev 604 ft 41.64 °N, 83.51 °W | Updated 28 seconds ago

Partly Cloudy
Partly Cloudy
51.4 °F
Feels Like 51.4 °F
N
0.0
Wind Variable Wind from South
Gusts 0.7 mph

Today
High -- | Low -- °F
--% Chance of Precip.
Yesterday
High -- | Low -- °F
Precip. -- in
Pressure 29.94 in
Visibility 5.0 miles
Clouds Scattered Clouds 8000 ft
Mostly Cloudy 9500 ft
Dew Point 50 °F
Humidity 94%
Rainfall 0.00 in
Snow Depth Not available.
7:20 AM 6:15 PM
Waning Crescent, 20% visible
METAR KTDZ 220353Z AUTO 00000KT 5SM BR SCT080 BKN095 09/09 A2994 RMK AO2 SLP139 T00940089
Pressure 29.94 in
Visibility 5.0 miles
Clouds Scattered Clouds 8000 ft
Mostly Cloudy 9500 ft
Dew Point 50 °F
Humidity 94%
Rainfall 0.00 in
Snow Depth Not available.
7:20 AM 6:15 PM
Waning Crescent, 20% visible
METAR KTDZ 220353Z AUTO 00000KT 5SM BR SCT080 BKN095 09/09 A2994 RMK AO2 SLP139 T00940089

Get Your Daily Forecast Email!

Thanks for signing up!

Be on the lookout for a verification email in your inbox.

You'll start receiving the daily forecast at 8 AM.

×

10-Day Weather Forecast

Almanac

Astronomy

Feb. 21, 2017 Rise Set
Actual Time
Civil Twilight
Nautical Twilight
Astronomical Twilight
Moon
Length of Visible Light
Length of Day
Tomorrow will be .
, % of the Moon is Illuminated

Today's Extremes

State Highs State Lows

Community

WunderPhotos

Upload Photos

1,962,540 photos uploaded!

WunderBlog® & News

Nearby

Air Quality

  Air Quality AQ Index Pollutant
Not available.

Snow Depth

Station Depth Elevation

Earthquake Activity

City Distance Mag. Time & Date
Minimum magnitude displayed is 2.5.

Coastal Water Temperatures

Place Temperature

Stations

Nearby Weather Stations

Station Location Temp. Windchill Dew Point Humidity Wind Precip. Elev Updated Type
                   

Watches & Warnings

There are currently no watches in effect.